createdAt,value
2019-03-18T00:00:26.984Z,6.30
2019-03-18T00:02:56.073Z,6.30
2019-03-18T00:05:25.233Z,6.20
2019-03-18T00:07:54.163Z,6.20
2019-03-18T00:10:23.276Z,6.20
2019-03-18T00:12:52.459Z,6.20
2019-03-18T00:15:21.647Z,6.10
2019-03-18T00:17:50.823Z,6.10
2019-03-18T00:20:19.865Z,6.10
2019-03-18T00:22:52.688Z,6.20
2019-03-18T00:25:21.831Z,6.10
2019-03-18T00:27:50.851Z,6.10
2019-03-18T00:30:20.904Z,6.00
2019-03-18T00:32:49.933Z,6.00
2019-03-18T00:35:18.936Z,5.90
2019-03-18T00:37:47.975Z,5.90
2019-03-18T00:40:18.169Z,5.90
2019-03-18T00:42:47.281Z,5.90
2019-03-18T00:45:17.719Z,5.90
2019-03-18T00:47:47.017Z,5.80
2019-03-18T00:50:16.834Z,5.80
2019-03-18T00:52:46.121Z,5.80
2019-03-18T00:55:15.140Z,5.80
2019-03-18T00:57:44.179Z,5.90
2019-03-18T01:00:15.191Z,5.90
2019-03-18T01:02:44.490Z,5.80
2019-03-18T01:05:14.071Z,5.90
2019-03-18T01:07:43.478Z,5.80
2019-03-18T01:10:16.670Z,5.80
2019-03-18T01:12:45.842Z,5.80
2019-03-18T01:15:27.378Z,5.80
2019-03-18T01:17:45.975Z,5.80
2019-03-18T01:20:15.456Z,5.80
2019-03-18T01:22:44.821Z,5.80
2019-03-18T01:25:13.946Z,5.80
2019-03-18T01:27:42.923Z,5.70
2019-03-18T01:30:13.308Z,5.70
2019-03-18T01:32:42.388Z,5.70
2019-03-18T01:35:11.653Z,5.70
2019-03-18T01:37:40.915Z,5.70
2019-03-18T01:40:14.276Z,5.60
2019-03-18T01:42:44.572Z,5.60
2019-03-18T01:45:13.937Z,5.60
2019-03-18T01:47:42.919Z,5.60
2019-03-18T01:50:15.576Z,5.60
2019-03-18T01:52:44.728Z,5.50
2019-03-18T01:55:13.929Z,5.60
2019-03-18T01:57:43.026Z,5.60
2019-03-18T02:00:15.976Z,5.60
2019-03-18T02:02:45.330Z,5.70
2019-03-18T02:05:14.443Z,5.70
2019-03-18T02:07:43.474Z,5.70
2019-03-18T02:10:14.635Z,5.70
2019-03-18T02:12:43.713Z,5.70
2019-03-18T02:15:13.979Z,5.80
2019-03-18T02:17:43.254Z,5.80
2019-03-18T02:20:15.837Z,5.80
2019-03-18T02:22:44.838Z,5.80
2019-03-18T02:25:14.338Z,5.90
2019-03-18T02:27:43.432Z,5.90
2019-03-18T02:30:15.573Z,5.90
2019-03-18T02:32:44.736Z,6.00
2019-03-18T02:35:13.841Z,6.00
2019-03-18T02:37:42.919Z,6.10
2019-03-18T02:40:12.544Z,6.10
2019-03-18T02:42:41.789Z,6.10
2019-03-18T02:45:11.632Z,6.10
2019-03-18T02:47:40.795Z,6.20
2019-03-18T02:50:11.969Z,6.20
2019-03-18T02:52:41.138Z,6.20
2019-03-18T02:55:10.334Z,6.10
2019-03-18T02:57:39.371Z,6.10
2019-03-18T03:00:11.206Z,6.10
2019-03-18T03:02:40.436Z,6.20
2019-03-18T03:05:11.630Z,6.20
2019-03-18T03:07:40.750Z,6.10
2019-03-18T03:10:11.747Z,6.10
2019-03-18T03:12:40.873Z,6.00
2019-03-18T03:15:14.265Z,6.10
2019-03-18T03:17:43.579Z,6.10
2019-03-18T03:20:13.321Z,6.10
2019-03-18T03:22:42.550Z,6.10
2019-03-18T03:25:11.651Z,6.10
2019-03-18T03:27:40.905Z,6.10
2019-03-18T03:30:16.597Z,5.90
2019-03-18T03:32:45.645Z,5.90
2019-03-18T03:35:14.987Z,6.00
2019-03-18T03:37:44.198Z,6.00
2019-03-18T03:40:13.437Z,6.00
2019-03-18T03:42:42.468Z,6.00
2019-03-18T03:45:15.533Z,6.00
2019-03-18T03:47:44.616Z,5.90
2019-03-18T03:50:15.150Z,5.90
2019-03-18T03:52:44.350Z,6.00
2019-03-18T03:55:14.229Z,6.00
2019-03-18T03:57:43.711Z,6.00
2019-03-18T04:00:16.399Z,5.90
2019-03-18T04:02:45.721Z,5.90
2019-03-18T04:05:14.895Z,5.90
2019-03-18T04:07:43.979Z,5.90
2019-03-18T04:10:18.552Z,5.80
2019-03-18T04:12:47.562Z,5.80
2019-03-18T04:15:16.758Z,5.80
2019-03-18T04:17:45.772Z,5.80
2019-03-18T04:20:17.944Z,5.80
2019-03-18T04:22:47.244Z,5.80
2019-03-18T04:25:16.338Z,5.70
2019-03-18T04:27:45.350Z,5.70
2019-03-18T04:30:17.185Z,5.70
2019-03-18T04:32:46.203Z,5.70
2019-03-18T04:35:15.869Z,5.60
2019-03-18T04:37:44.969Z,5.70
2019-03-18T04:40:14.233Z,5.80
2019-03-18T04:42:43.252Z,5.80
2019-03-18T04:45:12.411Z,5.90
2019-03-18T04:47:41.483Z,5.90
2019-03-18T04:50:12.073Z,5.90
2019-03-18T04:52:41.100Z,5.90
2019-03-18T04:55:10.350Z,5.90
2019-03-18T04:57:39.317Z,6.00
2019-03-18T05:00:13.493Z,6.00
2019-03-18T05:02:42.568Z,6.00
2019-03-18T05:05:11.774Z,5.90
2019-03-18T05:07:40.752Z,5.90
2019-03-18T05:10:10.572Z,6.00
2019-03-18T05:12:39.651Z,6.00
2019-03-18T05:15:11.918Z,6.00
2019-03-18T05:17:41.048Z,6.00
2019-03-18T05:20:11.474Z,6.00
2019-03-18T05:22:40.502Z,6.00
2019-03-18T05:25:10.514Z,5.90
2019-03-18T05:27:39.540Z,5.90
2019-03-18T05:30:13.246Z,6.00
2019-03-18T05:32:42.385Z,6.00
2019-03-18T05:35:11.537Z,6.00
2019-03-18T05:37:41.180Z,6.00
2019-03-18T05:40:10.301Z,6.00
2019-03-18T05:42:39.578Z,6.00
2019-03-18T05:45:10.267Z,6.00
2019-03-18T05:47:40.033Z,5.90
2019-03-18T05:50:11.837Z,5.90
2019-03-18T05:52:40.801Z,5.90
2019-03-18T05:55:11.098Z,5.80
2019-03-18T05:57:40.150Z,5.90
2019-03-18T06:00:13.721Z,5.90
2019-03-18T06:02:42.755Z,6.00
2019-03-18T06:05:12.162Z,6.00
2019-03-18T06:07:41.121Z,6.00
2019-03-18T06:10:13.683Z,5.90
2019-03-18T06:12:42.797Z,5.90
2019-03-18T06:15:12.891Z,5.90
2019-03-18T06:17:51.487Z,5.80
2019-03-18T06:20:12.953Z,5.70
2019-03-18T06:22:42.078Z,5.50
2019-03-18T06:25:11.261Z,5.50
2019-03-18T06:27:40.433Z,5.30
2019-03-18T06:30:14.175Z,5.30
2019-03-18T06:32:43.217Z,5.20
2019-03-18T06:35:12.651Z,5.20
2019-03-18T06:37:41.730Z,5.20
2019-03-18T06:40:13.353Z,5.10
2019-03-18T06:42:42.622Z,5.10
2019-03-18T06:45:12.159Z,5.20
2019-03-18T06:47:41.493Z,5.30
2019-03-18T06:50:11.990Z,5.40
2019-03-18T06:52:41.062Z,5.40
2019-03-18T06:55:10.173Z,5.40
2019-03-18T06:57:39.224Z,5.40
2019-03-18T07:00:13.844Z,5.50
2019-03-18T07:02:42.853Z,5.60
2019-03-18T07:05:12.073Z,5.70
2019-03-18T07:07:41.027Z,5.70
2019-03-18T07:10:16.309Z,5.70
2019-03-18T07:12:45.514Z,5.70
2019-03-18T07:15:14.563Z,5.70
2019-03-18T07:17:43.490Z,5.80
2019-03-18T07:20:13.792Z,5.70
2019-03-18T07:22:42.930Z,5.70
2019-03-18T07:25:12.154Z,5.80
2019-03-18T07:27:41.257Z,5.90
2019-03-18T07:30:12.728Z,6.00
2019-03-18T07:32:41.762Z,6.10
2019-03-18T07:35:11.191Z,6.10
2019-03-18T07:37:40.504Z,6.10
2019-03-18T07:40:14.096Z,6.00
2019-03-18T07:42:43.571Z,6.00
2019-03-18T07:45:15.773Z,6.00
2019-03-18T07:47:44.923Z,6.00
2019-03-18T07:50:15.036Z,6.20
2019-03-18T07:52:44.800Z,6.20
2019-03-18T07:55:13.907Z,6.30
2019-03-18T07:57:43.142Z,6.60
2019-03-18T08:00:13.837Z,6.80
2019-03-18T08:02:43.111Z,6.90
2019-03-18T08:05:12.264Z,6.70
2019-03-18T08:07:41.443Z,6.50
2019-03-18T08:10:12.723Z,6.40
2019-03-18T08:12:41.748Z,6.50
2019-03-18T08:15:13.833Z,6.50
2019-03-18T08:17:42.876Z,6.60
2019-03-18T08:20:12.771Z,6.60
2019-03-18T08:22:41.955Z,6.60
2019-03-18T08:25:11.431Z,6.70
2019-03-18T08:27:40.547Z,6.70
2019-03-18T08:30:11.962Z,6.80
2019-03-18T08:32:40.934Z,6.70
2019-03-18T08:35:10.287Z,6.80
2019-03-18T08:37:39.298Z,6.90
2019-03-18T08:40:10.030Z,6.90
2019-03-18T08:42:39.037Z,6.90
2019-03-18T08:45:12.603Z,6.90
2019-03-18T08:47:41.653Z,6.80
2019-03-18T08:50:12.480Z,7.00
2019-03-18T08:52:41.877Z,7.00
2019-03-18T08:55:11.688Z,7.20
2019-03-18T08:57:40.645Z,7.30
2019-03-18T09:00:13.325Z,7.30
2019-03-18T09:02:42.281Z,7.40
2019-03-18T09:05:11.657Z,7.40
2019-03-18T09:07:40.762Z,7.20
2019-03-18T09:10:14.679Z,7.20
2019-03-18T09:12:43.608Z,7.30
2019-03-18T09:15:13.165Z,7.40
2019-03-18T09:17:42.265Z,7.40
2019-03-18T09:20:12.961Z,7.60
2019-03-18T09:22:41.945Z,7.70
2019-03-18T09:25:11.644Z,7.70
2019-03-18T09:27:41.229Z,7.70
2019-03-18T09:30:20.373Z,7.70
2019-03-18T09:32:49.696Z,7.80
2019-03-18T09:35:18.795Z,7.90
2019-03-18T09:37:47.999Z,7.90
2019-03-18T09:40:17.708Z,8.00
2019-03-18T09:42:47.182Z,7.90
2019-03-18T09:45:19.495Z,7.90
2019-03-18T09:47:48.443Z,7.80
2019-03-18T09:50:17.511Z,7.80
2019-03-18T09:52:46.597Z,7.90
2019-03-18T09:55:15.620Z,8.00
2019-03-18T09:57:44.657Z,8.20
2019-03-18T10:00:16.042Z,8.10
2019-03-18T10:02:45.061Z,8.20
2019-03-18T10:05:14.393Z,8.30
2019-03-18T10:07:43.531Z,8.30
2019-03-18T10:10:14.238Z,8.30
2019-03-18T10:12:43.361Z,8.20
2019-03-18T10:15:14.264Z,8.30
2019-03-18T10:17:43.324Z,8.50
2019-03-18T10:20:12.460Z,8.70
2019-03-18T10:22:41.513Z,8.80
2019-03-18T10:25:10.654Z,9.10
2019-03-18T10:27:39.636Z,9.30
2019-03-18T10:30:11.269Z,9.40
2019-03-18T10:32:40.274Z,9.50
2019-03-18T10:35:09.982Z,9.70
2019-03-18T10:37:39.202Z,9.60
2019-03-18T10:40:10.487Z,9.70
2019-03-18T10:42:39.518Z,9.40
2019-03-18T10:45:12.449Z,9.30
2019-03-18T10:47:41.555Z,9.20
2019-03-18T10:50:12.895Z,9.10
2019-03-18T10:52:42.192Z,8.90
2019-03-18T10:55:11.515Z,9.00
2019-03-18T10:57:40.657Z,9.10
2019-03-18T11:00:18.511Z,9.40
2019-03-18T11:02:47.457Z,9.60
2019-03-18T11:05:16.769Z,9.90
2019-03-18T11:07:45.884Z,9.90
2019-03-18T11:10:16.124Z,9.80
2019-03-18T11:12:45.372Z,9.90
2019-03-18T11:15:19.408Z,9.80
2019-03-18T11:17:48.427Z,9.60
2019-03-18T11:20:17.824Z,9.50
2019-03-18T11:22:47.159Z,9.20
2019-03-18T11:25:19.727Z,9.10
2019-03-18T11:27:48.732Z,9.10
2019-03-18T11:30:18.797Z,9.20
2019-03-18T11:32:47.994Z,9.20
2019-03-18T11:35:17.936Z,9.30
2019-03-18T11:37:46.948Z,9.50
2019-03-18T11:40:20.201Z,9.70
2019-03-18T11:42:49.320Z,9.70
2019-03-18T11:45:18.438Z,9.50
2019-03-18T11:47:47.467Z,9.50
2019-03-18T11:50:17.876Z,9.30
2019-03-18T11:52:46.902Z,9.10
2019-03-18T11:55:19.150Z,9.10
2019-03-18T11:57:48.401Z,8.90
2019-03-18T12:00:19.156Z,8.90
2019-03-18T12:02:48.248Z,9.00
2019-03-18T12:05:22.574Z,9.10
2019-03-18T12:07:51.670Z,9.20
2019-03-18T12:10:21.581Z,9.30
2019-03-18T12:12:50.659Z,9.40
2019-03-18T12:15:27.120Z,9.50
2019-03-18T12:17:56.209Z,9.60
2019-03-18T12:20:25.910Z,9.70
2019-03-18T12:22:55.223Z,9.80
2019-03-18T12:25:24.323Z,9.80
2019-03-18T12:27:53.718Z,9.70
2019-03-18T12:30:23.995Z,9.80
2019-03-18T12:32:53.124Z,9.90
2019-03-18T12:35:22.265Z,9.90
2019-03-18T12:37:51.464Z,9.90
2019-03-18T12:40:20.413Z,10.00
2019-03-18T12:42:49.400Z,9.80
2019-03-18T12:45:19.893Z,9.90
2019-03-18T12:47:48.962Z,9.80
2019-03-18T12:50:38.705Z,9.80
2019-03-18T12:52:52.929Z,9.80
2019-03-18T12:55:22.003Z,9.80
2019-03-18T12:57:51.097Z,9.70
2019-03-18T13:00:33.660Z,9.80
2019-03-18T13:03:02.800Z,9.90
2019-03-18T13:05:31.913Z,10.00
2019-03-18T13:08:01.284Z,10.00
2019-03-18T13:10:30.255Z,10.10
2019-03-18T13:12:59.308Z,10.10
2019-03-18T13:15:28.306Z,10.20
2019-03-18T13:17:57.291Z,10.20
2019-03-18T13:20:26.396Z,10.20
2019-03-18T13:22:55.530Z,10.20
2019-03-18T13:25:24.477Z,10.20
2019-03-18T13:27:53.512Z,10.20
2019-03-18T13:30:23.785Z,10.20
2019-03-18T13:32:52.949Z,10.00
2019-03-18T13:35:22.057Z,9.90
2019-03-18T13:37:51.228Z,10.00
2019-03-18T13:40:20.524Z,10.00
2019-03-18T13:42:49.856Z,10.10
2019-03-18T13:45:21.325Z,10.20
2019-03-18T13:47:50.397Z,10.20
2019-03-18T13:50:20.454Z,10.30
2019-03-18T13:52:50.040Z,10.30
2019-03-18T13:55:19.414Z,10.30
2019-03-18T13:57:48.589Z,10.10
2019-03-18T14:00:21.653Z,9.90
2019-03-18T14:02:50.673Z,9.80
2019-03-18T14:05:20.000Z,9.80
2019-03-18T14:07:59.700Z,9.70
2019-03-18T14:10:21.894Z,9.60
2019-03-18T14:12:51.131Z,9.50
2019-03-18T14:15:26.437Z,9.40
2019-03-18T14:17:55.384Z,8.90
2019-03-18T14:20:25.636Z,8.40
2019-03-18T14:22:54.878Z,8.10
2019-03-18T14:25:24.426Z,7.80
2019-03-18T14:27:53.460Z,7.70
2019-03-18T14:30:24.039Z,7.70
2019-03-18T14:32:53.068Z,7.80
2019-03-18T14:35:22.312Z,7.90
2019-03-18T14:37:51.368Z,8.00
2019-03-18T14:40:22.543Z,8.10
2019-03-18T14:42:51.552Z,8.20
2019-03-18T14:45:24.071Z,8.40
2019-03-18T14:47:53.099Z,8.40
2019-03-18T14:50:22.222Z,8.40
2019-03-18T14:52:51.287Z,8.50
2019-03-18T14:55:20.576Z,8.50
2019-03-18T14:57:49.622Z,8.40
2019-03-18T15:00:28.131Z,8.50
2019-03-18T15:02:57.143Z,8.50
2019-03-18T15:05:26.300Z,8.50
2019-03-18T15:07:55.596Z,8.50
2019-03-18T15:10:29.250Z,8.40
2019-03-18T15:12:58.261Z,8.40
2019-03-18T15:15:27.376Z,8.50
2019-03-18T15:17:56.698Z,8.50
2019-03-18T15:20:27.523Z,8.60
2019-03-18T15:22:56.625Z,8.70
2019-03-18T15:25:30.241Z,8.70
2019-03-18T15:27:59.281Z,8.80
2019-03-18T15:30:28.488Z,8.90
2019-03-18T15:32:57.484Z,9.00
2019-03-18T15:35:26.641Z,9.10
2019-03-18T15:37:55.686Z,9.20
2019-03-18T15:40:26.730Z,9.30
2019-03-18T15:42:55.710Z,9.40
2019-03-18T15:45:25.191Z,9.40
2019-03-18T15:47:54.216Z,9.50
2019-03-18T15:50:26.933Z,9.50
2019-03-18T15:52:56.023Z,9.40
2019-03-18T15:55:25.071Z,9.40
2019-03-18T15:57:54.195Z,9.50
2019-03-18T16:00:28.538Z,9.60
2019-03-18T16:02:58.099Z,9.70
2019-03-18T16:05:27.182Z,9.60
2019-03-18T16:07:56.207Z,9.60
2019-03-18T16:10:25.288Z,9.50
2019-03-18T16:12:54.240Z,9.50
2019-03-18T16:15:23.283Z,9.50
2019-03-18T16:17:52.342Z,9.40
2019-03-18T16:20:23.340Z,9.30
2019-03-18T16:22:52.597Z,9.00
2019-03-18T16:25:21.867Z,9.00
2019-03-18T16:27:51.053Z,8.90
2019-03-18T16:30:23.303Z,8.90
2019-03-18T16:32:52.375Z,8.90
2019-03-18T16:35:21.713Z,8.80
2019-03-18T16:37:50.781Z,8.70
2019-03-18T16:40:23.977Z,8.50
2019-03-18T16:42:53.275Z,8.40
2019-03-18T16:45:22.341Z,8.30
2019-03-18T16:47:51.358Z,8.10
2019-03-18T16:50:24.925Z,8.10
2019-03-18T16:52:53.996Z,8.20
2019-03-18T16:55:23.303Z,8.20
2019-03-18T16:57:52.395Z,8.10
2019-03-18T17:00:25.420Z,8.00
2019-03-18T17:02:54.355Z,8.00
2019-03-18T17:05:23.640Z,8.00
2019-03-18T17:07:54.244Z,7.90
2019-03-18T17:10:23.426Z,7.90
2019-03-18T17:12:52.674Z,7.80
2019-03-18T17:15:22.526Z,7.70
2019-03-18T17:17:51.548Z,7.60
2019-03-18T17:20:20.949Z,7.40
2019-03-18T17:22:50.579Z,7.20
2019-03-18T17:25:31.397Z,7.00
2019-03-18T17:28:00.779Z,6.80
2019-03-18T17:30:29.810Z,6.80
2019-03-18T17:32:59.657Z,6.80
2019-03-18T17:35:28.703Z,6.80
2019-03-18T17:37:57.683Z,6.70
2019-03-18T17:40:26.806Z,6.60
2019-03-18T17:42:56.014Z,6.50
2019-03-18T17:45:25.189Z,6.50
2019-03-18T17:47:54.404Z,6.50
2019-03-18T17:50:26.426Z,6.40
2019-03-18T17:53:02.887Z,6.30
2019-03-18T17:55:26.617Z,6.10
2019-03-18T17:57:55.779Z,6.10
2019-03-18T18:00:29.014Z,6.00
2019-03-18T18:02:58.215Z,5.90
2019-03-18T18:05:27.306Z,5.80
2019-03-18T18:07:56.433Z,5.70
2019-03-18T18:10:25.455Z,5.70
2019-03-18T18:12:54.485Z,5.60
2019-03-18T18:15:23.559Z,5.60
2019-03-18T18:17:52.576Z,5.60
2019-03-18T18:20:21.635Z,5.50
2019-03-18T18:22:50.730Z,5.50
2019-03-18T18:25:19.695Z,5.50
2019-03-18T18:27:48.731Z,5.50
2019-03-18T18:30:19.017Z,5.60
2019-03-18T18:32:48.319Z,5.60
2019-03-18T18:35:17.488Z,5.60
2019-03-18T18:37:46.878Z,5.70
2019-03-18T18:40:24.530Z,5.70
2019-03-18T18:42:53.638Z,5.70
2019-03-18T18:45:23.282Z,5.70
2019-03-18T18:47:52.384Z,5.70
2019-03-18T18:50:21.626Z,5.70
2019-03-18T18:52:50.651Z,5.70
2019-03-18T18:55:19.872Z,5.70
2019-03-18T18:57:48.983Z,5.70
2019-03-18T19:00:21.071Z,5.70
2019-03-18T19:02:50.143Z,5.70
2019-03-18T19:05:20.013Z,5.70
2019-03-18T19:07:49.116Z,5.70
2019-03-18T19:10:21.666Z,5.80
2019-03-18T19:12:51.109Z,5.70
2019-03-18T19:15:25.880Z,5.80
2019-03-18T19:17:54.977Z,5.70
2019-03-18T19:20:24.111Z,5.70
2019-03-18T19:22:53.079Z,5.70
2019-03-18T19:25:22.159Z,5.70
2019-03-18T19:27:51.392Z,5.70
2019-03-18T19:30:24.150Z,5.70
2019-03-18T19:32:53.530Z,5.70
2019-03-18T19:35:22.832Z,5.70
2019-03-18T19:37:51.989Z,5.80
2019-03-18T19:40:22.257Z,5.80
2019-03-18T19:42:51.931Z,5.80
2019-03-18T19:45:21.064Z,5.70
2019-03-18T19:47:52.899Z,5.70
2019-03-18T19:50:25.379Z,5.80
2019-03-18T19:52:54.544Z,5.80
2019-03-18T19:55:23.635Z,5.80
2019-03-18T19:57:52.665Z,5.80
2019-03-18T20:00:29.464Z,5.90
2019-03-18T20:02:58.471Z,5.80
2019-03-18T20:05:27.507Z,5.80
2019-03-18T20:07:56.669Z,5.80
2019-03-18T20:10:25.841Z,5.80
2019-03-18T20:12:55.154Z,5.80
2019-03-18T20:15:24.267Z,5.70
2019-03-18T20:17:53.699Z,5.60
2019-03-18T20:20:23.850Z,5.60
2019-03-18T20:22:53.024Z,5.50
2019-03-18T20:25:22.096Z,5.50
2019-03-18T20:27:51.463Z,5.60
2019-03-18T20:30:23.984Z,5.60
2019-03-18T20:32:54.612Z,5.60
2019-03-18T20:35:24.594Z,5.60
2019-03-18T20:37:53.803Z,5.50
2019-03-18T20:40:23.095Z,5.40
2019-03-18T20:42:52.808Z,5.40
2019-03-18T20:45:23.468Z,5.40
2019-03-18T20:47:52.565Z,5.40
2019-03-18T20:50:25.390Z,5.40
2019-03-18T20:52:54.668Z,5.40
2019-03-18T20:55:23.805Z,5.50
2019-03-18T20:57:52.867Z,5.50
2019-03-18T21:00:23.066Z,5.50
2019-03-18T21:02:52.623Z,5.40
2019-03-18T21:05:24.665Z,5.50
2019-03-18T21:07:52.742Z,5.50
2019-03-18T21:10:22.057Z,5.50
2019-03-18T21:12:51.066Z,5.60
2019-03-18T21:15:20.133Z,5.60
2019-03-18T21:17:49.608Z,5.50
2019-03-18T21:20:24.618Z,5.50
2019-03-18T21:22:53.793Z,5.50
2019-03-18T21:25:22.956Z,5.50
2019-03-18T21:27:52.013Z,5.40
2019-03-18T21:30:22.038Z,5.40
2019-03-18T21:32:51.393Z,5.40
2019-03-18T21:35:20.647Z,5.40
2019-03-18T21:37:49.626Z,5.30
2019-03-18T21:40:20.981Z,5.30
2019-03-18T21:42:50.012Z,5.30
2019-03-18T21:45:20.193Z,5.30
2019-03-18T21:47:49.564Z,5.30
2019-03-18T21:50:18.677Z,5.40
2019-03-18T21:52:47.821Z,5.40
2019-03-18T21:55:17.263Z,5.50
2019-03-18T21:57:46.260Z,5.50
2019-03-18T22:00:19.168Z,5.50
2019-03-18T22:02:48.745Z,5.50
2019-03-18T22:05:17.944Z,5.40
2019-03-18T22:07:46.912Z,5.40
2019-03-18T22:10:20.529Z,5.40
2019-03-18T22:12:50.019Z,5.30
2019-03-18T22:15:19.254Z,5.30
2019-03-18T22:17:48.681Z,5.30
2019-03-18T22:20:18.854Z,5.20
2019-03-18T22:22:48.104Z,5.20
2019-03-18T22:25:17.373Z,5.20
2019-03-18T22:27:46.592Z,5.20
2019-03-18T22:30:17.248Z,5.20
2019-03-18T22:32:46.735Z,5.10
2019-03-18T22:35:15.813Z,5.10
2019-03-18T22:37:44.797Z,5.00
2019-03-18T22:40:18.526Z,5.00
2019-03-18T22:42:47.617Z,4.90
2019-03-18T22:45:19.862Z,4.90
2019-03-18T22:47:48.900Z,4.90
2019-03-18T22:50:19.208Z,4.80
2019-03-18T22:52:48.344Z,4.70
2019-03-18T22:55:17.525Z,4.70
2019-03-18T22:57:46.585Z,4.70
2019-03-18T23:00:39.828Z,4.70
2019-03-18T23:03:09.168Z,4.70
2019-03-18T23:05:38.137Z,4.70
2019-03-18T23:08:07.296Z,4.70
2019-03-18T23:10:36.335Z,4.70
2019-03-18T23:13:05.380Z,4.70
2019-03-18T23:15:34.602Z,4.70
2019-03-18T23:18:03.735Z,4.80
2019-03-18T23:20:32.719Z,4.80
2019-03-18T23:23:01.724Z,4.80
2019-03-18T23:25:30.719Z,4.80
2019-03-18T23:27:59.727Z,4.90
2019-03-18T23:30:28.689Z,4.90
2019-03-18T23:32:57.710Z,4.90
2019-03-18T23:35:26.677Z,5.00
2019-03-18T23:37:55.766Z,5.00
2019-03-18T23:40:24.803Z,5.00
2019-03-18T23:42:53.750Z,5.00
2019-03-18T23:45:23.005Z,5.00
2019-03-18T23:47:52.041Z,5.00
2019-03-18T23:50:21.034Z,5.10
2019-03-18T23:52:50.140Z,5.10
2019-03-18T23:55:20.081Z,5.00
2019-03-18T23:57:49.580Z,5.00
